sensor_id;sensor_type;location;lat;lon;timestamp;temperature;humidity
75683;HTU21D;64295;44.772;39.872;2023-02-07T00:00:34;-3.25;76.38
75683;HTU21D;64295;44.772;39.872;2023-02-07T00:03:00;-3.23;76.39
75683;HTU21D;64295;44.772;39.872;2023-02-07T00:05:27;-3.22;76.35
75683;HTU21D;64295;44.772;39.872;2023-02-07T00:07:53;-3.22;76.41
75683;HTU21D;64295;44.772;39.872;2023-02-07T00:10:19;-3.26;76.44
75683;HTU21D;64295;44.772;39.872;2023-02-07T00:12:45;-3.25;76.46
75683;HTU21D;64295;44.772;39.872;2023-02-07T00:15:11;-3.27;76.49
75683;HTU21D;64295;44.772;39.872;2023-02-07T00:17:37;-3.25;76.52
75683;HTU21D;64295;44.772;39.872;2023-02-07T00:20:04;-3.27;76.47
75683;HTU21D;64295;44.772;39.872;2023-02-07T00:22:30;-3.31;76.53
75683;HTU21D;64295;44.772;39.872;2023-02-07T00:24:56;-3.35;76.55
75683;HTU21D;64295;44.772;39.872;2023-02-07T00:27:22;-3.40;76.66
75683;HTU21D;64295;44.772;39.872;2023-02-07T00:29:48;-3.40;76.70
75683;HTU21D;64295;44.772;39.872;2023-02-07T00:32:14;-3.43;76.64
75683;HTU21D;64295;44.772;39.872;2023-02-07T00:34:40;-3.46;76.63
75683;HTU21D;64295;44.772;39.872;2023-02-07T00:37:06;-3.55;76.70
75683;HTU21D;64295;44.772;39.872;2023-02-07T00:39:33;-3.60;76.79
75683;HTU21D;64295;44.772;39.872;2023-02-07T00:41:59;-3.60;76.86
75683;HTU21D;64295;44.772;39.872;2023-02-07T00:44:25;-3.54;76.82
75683;HTU21D;64295;44.772;39.872;2023-02-07T00:46:51;-3.50;76.69
75683;HTU21D;64295;44.772;39.872;2023-02-07T00:49:17;-3.54;76.66
75683;HTU21D;64295;44.772;39.872;2023-02-07T00:51:43;-3.61;76.73
75683;HTU21D;64295;44.772;39.872;2023-02-07T00:54:09;-3.61;76.79
75683;HTU21D;64295;44.772;39.872;2023-02-07T00:56:35;-3.63;76.77
75683;HTU21D;64295;44.772;39.872;2023-02-07T00:59:00;-3.63;76.80
75683;HTU21D;64295;44.772;39.872;2023-02-07T01:01:27;-3.67;76.78
75683;HTU21D;64295;44.772;39.872;2023-02-07T01:03:55;-3.69;76.83
75683;HTU21D;64295;44.772;39.872;2023-02-07T01:06:21;-3.74;76.87
75683;HTU21D;64295;44.772;39.872;2023-02-07T01:08:47;-3.75;76.89
75683;HTU21D;64295;44.772;39.872;2023-02-07T01:11:15;-3.78;76.91
75683;HTU21D;64295;44.772;39.872;2023-02-07T01:13:43;-3.83;76.95
75683;HTU21D;64295;44.772;39.872;2023-02-07T01:16:39;-3.89;77.01
75683;HTU21D;64295;44.772;39.872;2023-02-07T01:19:07;-3.92;77.12
75683;HTU21D;64295;44.772;39.872;2023-02-07T01:21:33;-3.96;77.07
75683;HTU21D;64295;44.772;39.872;2023-02-07T01:23:59;-3.94;77.07
75683;HTU21D;64295;44.772;39.872;2023-02-07T01:26:26;-3.94;76.98
75683;HTU21D;64295;44.772;39.872;2023-02-07T01:28:53;-3.97;76.98
75683;HTU21D;64295;44.772;39.872;2023-02-07T01:31:19;-4.05;77.05
75683;HTU21D;64295;44.772;39.872;2023-02-07T01:33:47;-4.07;77.15
75683;HTU21D;64295;44.772;39.872;2023-02-07T01:36:17;-4.05;77.06
75683;HTU21D;64295;44.772;39.872;2023-02-07T01:38:43;-4.05;77.04
75683;HTU21D;64295;44.772;39.872;2023-02-07T01:41:09;-4.05;77.06
75683;HTU21D;64295;44.772;39.872;2023-02-07T01:44:02;-4.09;77.05
75683;HTU21D;64295;44.772;39.872;2023-02-07T01:46:31;-4.13;77.11
75683;HTU21D;64295;44.772;39.872;2023-02-07T01:49:04;-4.14;77.13
75683;HTU21D;64295;44.772;39.872;2023-02-07T01:51:31;-4.15;77.14
75683;HTU21D;64295;44.772;39.872;2023-02-07T01:54:00;-4.12;77.05
75683;HTU21D;64295;44.772;39.872;2023-02-07T01:56:28;-4.10;77.01
75683;HTU21D;64295;44.772;39.872;2023-02-07T01:58:54;-4.11;76.95
75683;HTU21D;64295;44.772;39.872;2023-02-07T02:01:23;-4.12;76.98
75683;HTU21D;64295;44.772;39.872;2023-02-07T02:03:53;-4.17;76.92
75683;HTU21D;64295;44.772;39.872;2023-02-07T02:06:20;-4.25;77.00
75683;HTU21D;64295;44.772;39.872;2023-02-07T02:08:46;-4.34;77.08
75683;HTU21D;64295;44.772;39.872;2023-02-07T02:17:30;-4.39;77.12
75683;HTU21D;64295;44.772;39.872;2023-02-07T02:35:16;-4.68;77.18
75683;HTU21D;64295;44.772;39.872;2023-02-07T02:38:12;-4.68;77.05
75683;HTU21D;64295;44.772;39.872;2023-02-07T02:40:42;-4.72;77.04
75683;HTU21D;64295;44.772;39.872;2023-02-07T02:43:24;-4.76;77.08
75683;HTU21D;64295;44.772;39.872;2023-02-07T02:45:59;-4.80;77.05
75683;HTU21D;64295;44.772;39.872;2023-02-07T02:48:27;-4.84;77.05
75683;HTU21D;64295;44.772;39.872;2023-02-07T02:50:54;-4.86;77.11
75683;HTU21D;64295;44.772;39.872;2023-02-07T02:53:24;-4.85;77.08
75683;HTU21D;64295;44.772;39.872;2023-02-07T03:01:41;-4.88;77.01
75683;HTU21D;64295;44.772;39.872;2023-02-07T03:07:17;-4.90;76.98
75683;HTU21D;64295;44.772;39.872;2023-02-07T03:10:04;-4.94;77.03
75683;HTU21D;64295;44.772;39.872;2023-02-07T03:12:50;-4.90;77.00
75683;HTU21D;64295;44.772;39.872;2023-02-07T03:15:34;-4.96;76.98
75683;HTU21D;64295;44.772;39.872;2023-02-07T03:18:20;-5.00;77.04
75683;HTU21D;64295;44.772;39.872;2023-02-07T03:20:55;-5.00;77.02
75683;HTU21D;64295;44.772;39.872;2023-02-07T03:23:23;-5.02;77.03
75683;HTU21D;64295;44.772;39.872;2023-02-07T03:25:52;-5.04;77.02
75683;HTU21D;64295;44.772;39.872;2023-02-07T03:28:19;-5.09;77.10
75683;HTU21D;64295;44.772;39.872;2023-02-07T03:30:47;-5.12;77.12
75683;HTU21D;64295;44.772;39.872;2023-02-07T03:33:16;-5.11;77.18
75683;HTU21D;64295;44.772;39.872;2023-02-07T03:38:36;-5.05;77.02
75683;HTU21D;64295;44.772;39.872;2023-02-07T03:41:20;-5.04;76.94
75683;HTU21D;64295;44.772;39.872;2023-02-07T03:43:48;-5.11;76.94
75683;HTU21D;64295;44.772;39.872;2023-02-07T03:46:15;-5.09;76.98
75683;HTU21D;64295;44.772;39.872;2023-02-07T03:48:41;-5.12;76.95
75683;HTU21D;64295;44.772;39.872;2023-02-07T03:51:07;-5.15;76.97
75683;HTU21D;64295;44.772;39.872;2023-02-07T03:53:33;-5.17;76.92
75683;HTU21D;64295;44.772;39.872;2023-02-07T03:55:59;-5.20;76.98
75683;HTU21D;64295;44.772;39.872;2023-02-07T03:58:25;-5.24;76.94
75683;HTU21D;64295;44.772;39.872;2023-02-07T04:00:51;-5.30;76.87
75683;HTU21D;64295;44.772;39.872;2023-02-07T04:03:16;-5.40;76.89
75683;HTU21D;64295;44.772;39.872;2023-02-07T04:05:45;-5.55;76.75
75683;HTU21D;64295;44.772;39.872;2023-02-07T04:08:14;-5.68;76.93
75683;HTU21D;64295;44.772;39.872;2023-02-07T04:10:39;-5.69;77.00
75683;HTU21D;64295;44.772;39.872;2023-02-07T04:13:05;-5.72;77.01
75683;HTU21D;64295;44.772;39.872;2023-02-07T04:15:31;-5.78;76.91
75683;HTU21D;64295;44.772;39.872;2023-02-07T04:17:57;-5.82;76.93
75683;HTU21D;64295;44.772;39.872;2023-02-07T04:20:23;-5.85;76.85
75683;HTU21D;64295;44.772;39.872;2023-02-07T04:22:48;-5.90;76.89
75683;HTU21D;64295;44.772;39.872;2023-02-07T04:25:14;-5.86;76.92
75683;HTU21D;64295;44.772;39.872;2023-02-07T04:27:40;-5.82;76.86
75683;HTU21D;64295;44.772;39.872;2023-02-07T04:30:07;-5.74;76.79
75683;HTU21D;64295;44.772;39.872;2023-02-07T04:32:33;-5.69;76.65
75683;HTU21D;64295;44.772;39.872;2023-02-07T04:34:59;-5.67;76.49
75683;HTU21D;64295;44.772;39.872;2023-02-07T04:37:25;-5.71;76.50
75683;HTU21D;64295;44.772;39.872;2023-02-07T04:39:50;-5.75;76.53
75683;HTU21D;64295;44.772;39.872;2023-02-07T04:42:16;-5.85;76.55
75683;HTU21D;64295;44.772;39.872;2023-02-07T04:44:42;-5.82;77.05
75683;HTU21D;64295;44.772;39.872;2023-02-07T04:47:08;-5.72;76.63
75683;HTU21D;64295;44.772;39.872;2023-02-07T04:49:34;-5.78;76.51
75683;HTU21D;64295;44.772;39.872;2023-02-07T04:52:00;-5.84;76.55
75683;HTU21D;64295;44.772;39.872;2023-02-07T04:54:25;-5.91;76.57
75683;HTU21D;64295;44.772;39.872;2023-02-07T04:56:51;-5.94;76.62
75683;HTU21D;64295;44.772;39.872;2023-02-07T04:59:17;-5.98;76.57
75683;HTU21D;64295;44.772;39.872;2023-02-07T05:01:43;-5.98;76.63
75683;HTU21D;64295;44.772;39.872;2023-02-07T05:04:09;-5.99;76.53
75683;HTU21D;64295;44.772;39.872;2023-02-07T05:06:34;-5.99;76.49
75683;HTU21D;64295;44.772;39.872;2023-02-07T05:09:00;-6.00;76.44
75683;HTU21D;64295;44.772;39.872;2023-02-07T05:11:26;-5.99;76.45
75683;HTU21D;64295;44.772;39.872;2023-02-07T05:13:52;-6.00;76.47
75683;HTU21D;64295;44.772;39.872;2023-02-07T05:16:18;-5.94;76.37
75683;HTU21D;64295;44.772;39.872;2023-02-07T05:18:44;-5.97;76.28
75683;HTU21D;64295;44.772;39.872;2023-02-07T05:21:10;-6.00;76.26
75683;HTU21D;64295;44.772;39.872;2023-02-07T05:23:36;-5.99;76.32
75683;HTU21D;64295;44.772;39.872;2023-02-07T05:26:01;-5.88;76.52
75683;HTU21D;64295;44.772;39.872;2023-02-07T05:28:27;-5.89;76.34
75683;HTU21D;64295;44.772;39.872;2023-02-07T05:30:55;-5.85;76.34
75683;HTU21D;64295;44.772;39.872;2023-02-07T05:33:20;-5.89;76.24
75683;HTU21D;64295;44.772;39.872;2023-02-07T05:35:46;-5.93;76.24
75683;HTU21D;64295;44.772;39.872;2023-02-07T05:38:15;-5.93;76.18
75683;HTU21D;64295;44.772;39.872;2023-02-07T05:40:41;-5.99;76.19
75683;HTU21D;64295;44.772;39.872;2023-02-07T05:43:08;-6.03;76.22
75683;HTU21D;64295;44.772;39.872;2023-02-07T05:45:35;-6.05;76.24
75683;HTU21D;64295;44.772;39.872;2023-02-07T05:48:01;-6.06;76.22
75683;HTU21D;64295;44.772;39.872;2023-02-07T05:50:27;-6.05;76.24
75683;HTU21D;64295;44.772;39.872;2023-02-07T05:53:03;-6.09;76.18
75683;HTU21D;64295;44.772;39.872;2023-02-07T05:55:29;-6.06;76.24
75683;HTU21D;64295;44.772;39.872;2023-02-07T05:57:55;-5.90;76.29
75683;HTU21D;64295;44.772;39.872;2023-02-07T06:00:21;-5.81;76.63
75683;HTU21D;64295;44.772;39.872;2023-02-07T06:02:47;-5.67;76.43
75683;HTU21D;64295;44.772;39.872;2023-02-07T06:05:15;-5.54;76.51
75683;HTU21D;64295;44.772;39.872;2023-02-07T06:07:42;-5.56;76.12
75683;HTU21D;64295;44.772;39.872;2023-02-07T06:10:11;-5.61;76.13
75683;HTU21D;64295;44.772;39.872;2023-02-07T06:12:37;-5.75;76.18
75683;HTU21D;64295;44.772;39.872;2023-02-07T06:15:05;-5.76;76.50
75683;HTU21D;64295;44.772;39.872;2023-02-07T06:17:31;-5.57;76.56
75683;HTU21D;64295;44.772;39.872;2023-02-07T06:19:57;-5.38;76.26
75683;HTU21D;64295;44.772;39.872;2023-02-07T06:22:22;-5.47;75.86
75683;HTU21D;64295;44.772;39.872;2023-02-07T06:24:48;-5.67;75.97
75683;HTU21D;64295;44.772;39.872;2023-02-07T06:27:14;-5.83;76.19
75683;HTU21D;64295;44.772;39.872;2023-02-07T06:29:40;-5.92;76.33
75683;HTU21D;64295;44.772;39.872;2023-02-07T06:32:06;-5.93;76.41
75683;HTU21D;64295;44.772;39.872;2023-02-07T06:34:32;-5.97;76.24
75683;HTU21D;64295;44.772;39.872;2023-02-07T06:36:58;-6.00;76.37
75683;HTU21D;64295;44.772;39.872;2023-02-07T06:39:24;-5.91;76.32
75683;HTU21D;64295;44.772;39.872;2023-02-07T06:41:49;-5.87;76.18
75683;HTU21D;64295;44.772;39.872;2023-02-07T06:44:15;-5.83;76.03
75683;HTU21D;64295;44.772;39.872;2023-02-07T06:46:41;-5.87;75.99
75683;HTU21D;64295;44.772;39.872;2023-02-07T06:49:07;-5.84;75.95
75683;HTU21D;64295;44.772;39.872;2023-02-07T06:51:33;-5.86;75.82
75683;HTU21D;64295;44.772;39.872;2023-02-07T06:53:59;-5.83;75.89
75683;HTU21D;64295;44.772;39.872;2023-02-07T06:56:27;-5.78;75.86
75683;HTU21D;64295;44.772;39.872;2023-02-07T06:58:53;-5.77;75.77
75683;HTU21D;64295;44.772;39.872;2023-02-07T07:01:19;-5.64;76.38
75683;HTU21D;64295;44.772;39.872;2023-02-07T07:03:48;-5.24;76.05
75683;HTU21D;64295;44.772;39.872;2023-02-07T07:06:14;-5.03;75.57
75683;HTU21D;64295;44.772;39.872;2023-02-07T07:08:39;-5.17;74.92
75683;HTU21D;64295;44.772;39.872;2023-02-07T07:11:05;-5.40;75.36
75683;HTU21D;64295;44.772;39.872;2023-02-07T07:13:31;-5.46;75.71
75683;HTU21D;64295;44.772;39.872;2023-02-07T07:15:57;-5.37;75.98
75683;HTU21D;64295;44.772;39.872;2023-02-07T07:18:23;-5.29;75.82
75683;HTU21D;64295;44.772;39.872;2023-02-07T07:20:53;-5.40;75.53
75683;HTU21D;64295;44.772;39.872;2023-02-07T07:23:19;-5.48;75.65
75683;HTU21D;64295;44.772;39.872;2023-02-07T07:25:45;-5.57;75.71
75683;HTU21D;64295;44.772;39.872;2023-02-07T07:28:11;-5.63;75.77
75683;HTU21D;64295;44.772;39.872;2023-02-07T07:30:39;-5.59;76.09
75683;HTU21D;64295;44.772;39.872;2023-02-07T07:33:05;-5.45;75.67
75683;HTU21D;64295;44.772;39.872;2023-02-07T07:35:31;-5.55;75.32
75683;HTU21D;64295;44.772;39.872;2023-02-07T07:37:58;-5.60;75.54
75683;HTU21D;64295;44.772;39.872;2023-02-07T07:40:24;-5.60;75.51
75683;HTU21D;64295;44.772;39.872;2023-02-07T07:42:49;-5.57;75.41
75683;HTU21D;64295;44.772;39.872;2023-02-07T07:45:28;-5.53;75.36
75683;HTU21D;64295;44.772;39.872;2023-02-07T07:47:53;-5.48;75.21
75683;HTU21D;64295;44.772;39.872;2023-02-07T07:50:19;-5.40;75.08
75683;HTU21D;64295;44.772;39.872;2023-02-07T07:52:45;-5.32;74.81
75683;HTU21D;64295;44.772;39.872;2023-02-07T07:55:11;-5.28;74.80
75683;HTU21D;64295;44.772;39.872;2023-02-07T07:57:37;-5.16;74.73
75683;HTU21D;64295;44.772;39.872;2023-02-07T08:00:04;-5.09;74.39
75683;HTU21D;64295;44.772;39.872;2023-02-07T08:02:39;-5.03;74.24
75683;HTU21D;64295;44.772;39.872;2023-02-07T08:05:05;-5.00;74.06
75683;HTU21D;64295;44.772;39.872;2023-02-07T08:07:31;-4.79;74.33
75683;HTU21D;64295;44.772;39.872;2023-02-07T08:09:57;-4.73;74.27
75683;HTU21D;64295;44.772;39.872;2023-02-07T08:12:22;-4.66;74.00
75683;HTU21D;64295;44.772;39.872;2023-02-07T08:14:48;-4.68;73.83
75683;HTU21D;64295;44.772;39.872;2023-02-07T08:17:14;-4.74;73.67
75683;HTU21D;64295;44.772;39.872;2023-02-07T08:19:40;-4.79;73.80
75683;HTU21D;64295;44.772;39.872;2023-02-07T08:22:06;-4.78;73.71
75683;HTU21D;64295;44.772;39.872;2023-02-07T08:24:32;-4.85;73.64
75683;HTU21D;64295;44.772;39.872;2023-02-07T08:26:59;-4.81;73.53
75683;HTU21D;64295;44.772;39.872;2023-02-07T08:29:24;-4.79;73.38
75683;HTU21D;64295;44.772;39.872;2023-02-07T08:31:50;-4.81;73.19
75683;HTU21D;64295;44.772;39.872;2023-02-07T08:34:16;-4.81;73.13
75683;HTU21D;64295;44.772;39.872;2023-02-07T08:36:43;-4.71;73.22
75683;HTU21D;64295;44.772;39.872;2023-02-07T08:39:09;-4.54;73.03
75683;HTU21D;64295;44.772;39.872;2023-02-07T08:41:35;-4.55;72.65
75683;HTU21D;64295;44.772;39.872;2023-02-07T08:44:01;-4.52;72.55
75683;HTU21D;64295;44.772;39.872;2023-02-07T08:46:27;-4.48;72.64
75683;HTU21D;64295;44.772;39.872;2023-02-07T08:48:53;-4.39;72.72
75683;HTU21D;64295;44.772;39.872;2023-02-07T08:51:20;-4.37;72.29
75683;HTU21D;64295;44.772;39.872;2023-02-07T08:53:46;-4.40;72.40
75683;HTU21D;64295;44.772;39.872;2023-02-07T08:56:12;-4.46;72.38
75683;HTU21D;64295;44.772;39.872;2023-02-07T08:58:38;-4.42;72.64
75683;HTU21D;64295;44.772;39.872;2023-02-07T09:01:05;-4.35;72.19
75683;HTU21D;64295;44.772;39.872;2023-02-07T09:03:38;-4.37;72.37
75683;HTU21D;64295;44.772;39.872;2023-02-07T09:06:04;-4.37;72.25
75683;HTU21D;64295;44.772;39.872;2023-02-07T09:08:30;-4.40;72.20
75683;HTU21D;64295;44.772;39.872;2023-02-07T09:10:56;-4.43;72.41
75683;HTU21D;64295;44.772;39.872;2023-02-07T09:13:22;-4.43;72.26
75683;HTU21D;64295;44.772;39.872;2023-02-07T09:15:57;-4.43;72.48
75683;HTU21D;64295;44.772;39.872;2023-02-07T09:18:24;-4.40;72.04
75683;HTU21D;64295;44.772;39.872;2023-02-07T09:20:51;-4.46;71.75
75683;HTU21D;64295;44.772;39.872;2023-02-07T09:23:17;-4.44;71.77
75683;HTU21D;64295;44.772;39.872;2023-02-07T09:25:49;-4.52;71.71
75683;HTU21D;64295;44.772;39.872;2023-02-07T09:28:16;-4.48;71.80
75683;HTU21D;64295;44.772;39.872;2023-02-07T09:30:43;-4.56;71.64
75683;HTU21D;64295;44.772;39.872;2023-02-07T09:33:11;-4.60;71.84
75683;HTU21D;64295;44.772;39.872;2023-02-07T09:35:45;-4.58;71.77
75683;HTU21D;64295;44.772;39.872;2023-02-07T09:38:14;-4.66;71.35
75683;HTU21D;64295;44.772;39.872;2023-02-07T09:40:41;-4.74;71.55
75683;HTU21D;64295;44.772;39.872;2023-02-07T09:45:58;-4.72;71.64
75683;HTU21D;64295;44.772;39.872;2023-02-07T09:48:45;-4.71;71.79
75683;HTU21D;64295;44.772;39.872;2023-02-07T09:51:16;-4.67;71.70
75683;HTU21D;64295;44.772;39.872;2023-02-07T09:54:21;-4.70;71.37
75683;HTU21D;64295;44.772;39.872;2023-02-07T09:56:39;-4.75;71.54
75683;HTU21D;64295;44.772;39.872;2023-02-07T09:59:26;-4.76;71.69
75683;HTU21D;64295;44.772;39.872;2023-02-07T10:01:59;-4.69;71.70
75683;HTU21D;64295;44.772;39.872;2023-02-07T10:04:37;-4.67;71.70
75683;HTU21D;64295;44.772;39.872;2023-02-07T10:07:05;-4.70;71.53
75683;HTU21D;64295;44.772;39.872;2023-02-07T10:09:38;-4.73;71.51
75683;HTU21D;64295;44.772;39.872;2023-02-07T10:28:34;-5.07;71.71
75683;HTU21D;64295;44.772;39.872;2023-02-07T10:31:11;-5.10;71.79
75683;HTU21D;64295;44.772;39.872;2023-02-07T10:33:40;-5.10;71.67
75683;HTU21D;64295;44.772;39.872;2023-02-07T10:36:12;-5.16;71.35
75683;HTU21D;64295;44.772;39.872;2023-02-07T10:41:37;-5.02;71.49
75683;HTU21D;64295;44.772;39.872;2023-02-07T10:44:11;-5.00;71.54
75683;HTU21D;64295;44.772;39.872;2023-02-07T10:46:39;-4.90;71.60
75683;HTU21D;64295;44.772;39.872;2023-02-07T10:49:12;-4.84;71.56
75683;HTU21D;64295;44.772;39.872;2023-02-07T10:51:41;-4.82;71.40
75683;HTU21D;64295;44.772;39.872;2023-02-07T10:54:14;-4.86;71.26
75683;HTU21D;64295;44.772;39.872;2023-02-07T10:57:00;-4.94;71.11
75683;HTU21D;64295;44.772;39.872;2023-02-07T10:59:36;-4.91;71.15
75683;HTU21D;64295;44.772;39.872;2023-02-07T11:05:00;-4.94;70.97
75683;HTU21D;64295;44.772;39.872;2023-02-07T11:07:28;-4.94;70.95
75683;HTU21D;64295;44.772;39.872;2023-02-07T11:10:28;-4.96;70.90
75683;HTU21D;64295;44.772;39.872;2023-02-07T11:13:00;-4.95;71.02
75683;HTU21D;64295;44.772;39.872;2023-02-07T11:16:17;-4.86;71.06
75683;HTU21D;64295;44.772;39.872;2023-02-07T11:18:39;-4.82;70.81
75683;HTU21D;64295;44.772;39.872;2023-02-07T11:24:17;-4.82;70.92
75683;HTU21D;64295;44.772;39.872;2023-02-07T11:27:20;-4.75;70.77
75683;HTU21D;64295;44.772;39.872;2023-02-07T11:32:16;-4.61;70.54
75683;HTU21D;64295;44.772;39.872;2023-02-07T11:34:56;-4.57;70.48
75683;HTU21D;64295;44.772;39.872;2023-02-07T11:39:50;-4.56;70.41
75683;HTU21D;64295;44.772;39.872;2023-02-07T11:42:21;-4.46;69.98
75683;HTU21D;64295;44.772;39.872;2023-02-07T11:44:48;-4.46;70.13
75683;HTU21D;64295;44.772;39.872;2023-02-07T11:47:27;-4.44;69.71
75683;HTU21D;64295;44.772;39.872;2023-02-07T11:49:59;-4.49;69.84
75683;HTU21D;64295;44.772;39.872;2023-02-07T11:52:26;-4.37;70.26
75683;HTU21D;64295;44.772;39.872;2023-02-07T11:54:57;-4.28;70.10
75683;HTU21D;64295;44.772;39.872;2023-02-07T11:57:28;-4.31;70.07
75683;HTU21D;64295;44.772;39.872;2023-02-07T12:02:47;-4.49;70.40
75683;HTU21D;64295;44.772;39.872;2023-02-07T12:05:36;-4.61;70.62
75683;HTU21D;64295;44.772;39.872;2023-02-07T12:08:09;-4.65;70.85
75683;HTU21D;64295;44.772;39.872;2023-02-07T12:10:39;-4.64;71.06
75683;HTU21D;64295;44.772;39.872;2023-02-07T12:13:25;-4.71;71.26
75683;HTU21D;64295;44.772;39.872;2023-02-07T12:15:59;-4.57;71.54
75683;HTU21D;64295;44.772;39.872;2023-02-07T12:19:09;-4.78;71.53
75683;HTU21D;64295;44.772;39.872;2023-02-07T12:21:35;-5.00;71.79
75683;HTU21D;64295;44.772;39.872;2023-02-07T12:24:09;-5.08;71.98
75683;HTU21D;64295;44.772;39.872;2023-02-07T12:34:47;-5.28;72.18
75683;HTU21D;64295;44.772;39.872;2023-02-07T12:43:25;-5.33;72.17
75683;HTU21D;64295;44.772;39.872;2023-02-07T12:57:12;-5.31;72.22
75683;HTU21D;64295;44.772;39.872;2023-02-07T13:05:33;-4.83;72.67
75683;HTU21D;64295;44.772;39.872;2023-02-07T13:11:14;-4.82;72.09
75683;HTU21D;64295;44.772;39.872;2023-02-07T13:14:04;-4.97;72.32
75683;HTU21D;64295;44.772;39.872;2023-02-07T13:22:34;-5.23;72.99
75683;HTU21D;64295;44.772;39.872;2023-02-07T13:25:02;-5.28;72.90
75683;HTU21D;64295;44.772;39.872;2023-02-07T13:27:33;-5.38;72.99
75683;HTU21D;64295;44.772;39.872;2023-02-07T13:30:01;-5.42;73.16
75683;HTU21D;64295;44.772;39.872;2023-02-07T13:32:27;-5.43;73.19
75683;HTU21D;64295;44.772;39.872;2023-02-07T13:35:11;-5.41;73.25
75683;HTU21D;64295;44.772;39.872;2023-02-07T13:37:58;-5.40;73.16
75683;HTU21D;64295;44.772;39.872;2023-02-07T13:48:58;-5.26;73.06
75683;HTU21D;64295;44.772;39.872;2023-02-07T13:56:34;-5.15;72.75
75683;HTU21D;64295;44.772;39.872;2023-02-07T13:59:36;-5.15;72.82
75683;HTU21D;64295;44.772;39.872;2023-02-07T14:02:18;-5.00;73.18
75683;HTU21D;64295;44.772;39.872;2023-02-07T14:04:49;-4.56;73.41
75683;HTU21D;64295;44.772;39.872;2023-02-07T14:07:32;-4.38;72.56
75683;HTU21D;64295;44.772;39.872;2023-02-07T14:10:01;-4.44;72.58
75683;HTU21D;64295;44.772;39.872;2023-02-07T14:12:32;-4.53;72.74
75683;HTU21D;64295;44.772;39.872;2023-02-07T14:18:39;-4.42;73.12
75683;HTU21D;64295;44.772;39.872;2023-02-07T14:34:18;-4.60;73.32
75683;HTU21D;64295;44.772;39.872;2023-02-07T14:36:47;-4.66;73.17
75683;HTU21D;64295;44.772;39.872;2023-02-07T14:41:42;-4.79;73.36
75683;HTU21D;64295;44.772;39.872;2023-02-07T14:46:51;-4.86;73.33
75683;HTU21D;64295;44.772;39.872;2023-02-07T14:49:29;-4.89;73.44
75683;HTU21D;64295;44.772;39.872;2023-02-07T15:02:38;-4.88;73.19
75683;HTU21D;64295;44.772;39.872;2023-02-07T15:07:41;-4.95;73.22
75683;HTU21D;64295;44.772;39.872;2023-02-07T15:10:20;-4.99;73.34
75683;HTU21D;64295;44.772;39.872;2023-02-07T15:12:47;-5.00;73.29
75683;HTU21D;64295;44.772;39.872;2023-02-07T15:15:26;-5.00;73.34
75683;HTU21D;64295;44.772;39.872;2023-02-07T15:17:54;-4.96;73.24
75683;HTU21D;64295;44.772;39.872;2023-02-07T15:20:32;-4.97;73.22
75683;HTU21D;64295;44.772;39.872;2023-02-07T15:23:01;-5.00;73.23
75683;HTU21D;64295;44.772;39.872;2023-02-07T15:25:28;-5.02;73.30
75683;HTU21D;64295;44.772;39.872;2023-02-07T15:28:24;-5.05;73.29
75683;HTU21D;64295;44.772;39.872;2023-02-07T15:31:14;-5.04;73.38
75683;HTU21D;64295;44.772;39.872;2023-02-07T15:33:56;-4.99;73.25
75683;HTU21D;64295;44.772;39.872;2023-02-07T15:36:27;-4.99;73.16
75683;HTU21D;64295;44.772;39.872;2023-02-07T15:38:55;-5.01;73.21
75683;HTU21D;64295;44.772;39.872;2023-02-07T15:41:21;-5.00;73.27
75683;HTU21D;64295;44.772;39.872;2023-02-07T15:44:02;-5.00;73.18
75683;HTU21D;64295;44.772;39.872;2023-02-07T15:46:44;-5.00;73.26
75683;HTU21D;64295;44.772;39.872;2023-02-07T15:49:22;-5.00;73.27
75683;HTU21D;64295;44.772;39.872;2023-02-07T15:51:49;-5.04;73.15
75683;HTU21D;64295;44.772;39.872;2023-02-07T15:54:16;-5.05;73.22
75683;HTU21D;64295;44.772;39.872;2023-02-07T15:56:45;-5.10;73.32
75683;HTU21D;64295;44.772;39.872;2023-02-07T15:59:17;-5.09;73.44
75683;HTU21D;64295;44.772;39.872;2023-02-07T16:01:52;-5.05;73.33
75683;HTU21D;64295;44.772;39.872;2023-02-07T16:04:18;-5.03;73.33
75683;HTU21D;64295;44.772;39.872;2023-02-07T16:07:03;-4.97;73.35
75683;HTU21D;64295;44.772;39.872;2023-02-07T16:09:40;-4.99;73.25
75683;HTU21D;64295;44.772;39.872;2023-02-07T16:14:59;-5.07;73.44
75683;HTU21D;64295;44.772;39.872;2023-02-07T16:17:37;-5.04;73.54
75683;HTU21D;64295;44.772;39.872;2023-02-07T16:20:04;-4.85;74.04
75683;HTU21D;64295;44.772;39.872;2023-02-07T16:22:30;-4.71;73.41
75683;HTU21D;64295;44.772;39.872;2023-02-07T16:25:00;-4.78;73.41
75683;HTU21D;64295;44.772;39.872;2023-02-07T16:27:27;-4.81;73.44
75683;HTU21D;64295;44.772;39.872;2023-02-07T16:29:57;-4.84;73.51
75683;HTU21D;64295;44.772;39.872;2023-02-07T16:32:30;-4.83;73.61
75683;HTU21D;64295;44.772;39.872;2023-02-07T16:34:56;-4.84;73.59
75683;HTU21D;64295;44.772;39.872;2023-02-07T16:37:22;-4.84;73.63
75683;HTU21D;64295;44.772;39.872;2023-02-07T16:39:48;-4.86;73.57
75683;HTU21D;64295;44.772;39.872;2023-02-07T16:42:14;-4.89;73.75
75683;HTU21D;64295;44.772;39.872;2023-02-07T16:44:41;-4.89;73.76
75683;HTU21D;64295;44.772;39.872;2023-02-07T16:47:12;-4.86;73.75
75683;HTU21D;64295;44.772;39.872;2023-02-07T16:49:38;-4.85;73.75
75683;HTU21D;64295;44.772;39.872;2023-02-07T16:52:04;-4.81;73.75
75683;HTU21D;64295;44.772;39.872;2023-02-07T16:54:30;-4.81;73.74
75683;HTU21D;64295;44.772;39.872;2023-02-07T16:56:57;-4.80;73.75
75683;HTU21D;64295;44.772;39.872;2023-02-07T16:59:26;-4.75;73.72
75683;HTU21D;64295;44.772;39.872;2023-02-07T17:01:52;-4.73;73.72
75683;HTU21D;64295;44.772;39.872;2023-02-07T17:04:19;-4.71;73.66
75683;HTU21D;64295;44.772;39.872;2023-02-07T17:06:45;-4.73;73.69
75683;HTU21D;64295;44.772;39.872;2023-02-07T17:09:20;-4.81;73.78
75683;HTU21D;64295;44.772;39.872;2023-02-07T17:11:46;-4.87;73.93
75683;HTU21D;64295;44.772;39.872;2023-02-07T17:14:13;-4.87;74.05
75683;HTU21D;64295;44.772;39.872;2023-02-07T17:16:39;-4.89;74.04
75683;HTU21D;64295;44.772;39.872;2023-02-07T17:19:25;-4.96;74.28
75683;HTU21D;64295;44.772;39.872;2023-02-07T17:21:53;-4.97;74.29
75683;HTU21D;64295;44.772;39.872;2023-02-07T17:24:21;-4.97;74.29
75683;HTU21D;64295;44.772;39.872;2023-02-07T17:26:50;-4.93;74.27
75683;HTU21D;64295;44.772;39.872;2023-02-07T17:29:17;-4.89;74.27
75683;HTU21D;64295;44.772;39.872;2023-02-07T17:31:43;-4.93;74.17
75683;HTU21D;64295;44.772;39.872;2023-02-07T17:34:09;-4.96;74.25
75683;HTU21D;64295;44.772;39.872;2023-02-07T17:36:36;-4.96;74.30
75683;HTU21D;64295;44.772;39.872;2023-02-07T17:39:06;-4.98;74.41
75683;HTU21D;64295;44.772;39.872;2023-02-07T17:41:35;-4.96;74.42
75683;HTU21D;64295;44.772;39.872;2023-02-07T17:44:00;-4.98;74.44
75683;HTU21D;64295;44.772;39.872;2023-02-07T17:46:27;-5.02;74.54
75683;HTU21D;64295;44.772;39.872;2023-02-07T17:48:53;-5.01;74.60
75683;HTU21D;64295;44.772;39.872;2023-02-07T17:51:24;-4.98;74.59
75683;HTU21D;64295;44.772;39.872;2023-02-07T17:53:52;-4.99;74.62
75683;HTU21D;64295;44.772;39.872;2023-02-07T17:56:28;-5.00;74.64
75683;HTU21D;64295;44.772;39.872;2023-02-07T17:58:58;-5.05;74.70